Time;durP1;ratioP1;P1;durP2;ratioP2;P2;SDS_P1;SDS_P2;PMS_P1;PMS_P2;Temp;Humidity;BMP_temperature;BMP_pressure;BME280_temperature;BME280_humidity;BME280_pressure;Samples;Min_cycle;Max_cycle;Signal;HPM_P1;HPM_P2
2020/12/03 00:01:49;;;;;;;26.73;16.77;;;;;;;;;;5092966;28;20465;-75
2020/12/03 00:04:14;;;;;;;28.65;19.23;;;;;;;;;;5093232;28;20048;-76
2020/12/03 00:06:49;;;;;;;26.92;18.25;;;;;;;;;;5093374;28;20098;-75
2020/12/03 00:09:17;;;;;;;26.10;17.00;;;;;;;;;;5093049;28;20401;-75
2020/12/03 00:11:48;;;;;;;25.80;16.65;;;;;;;;;;5093261;28;20059;-75
2020/12/03 00:14:13;;;;;;;26.58;17.52;;;;;;;;;;5093081;28;20044;-76
2020/12/03 00:16:40;;;;;;;24.15;16.30;;;;;;;;;;5093277;28;20093;-75
2020/12/03 00:19:08;;;;;;;24.30;17.10;;;;;;;;;;5093278;28;20366;-75
2020/12/03 00:21:37;;;;;;;27.42;17.65;;;;;;;;;;5093291;28;20040;-75
2020/12/03 00:24:04;;;;;;;25.05;16.95;;;;;;;;;;5091259;28;20038;-75
2020/12/03 00:26:30;;;;;;;23.95;15.80;;;;;;;;;;5092851;28;20131;-76
2020/12/03 00:28:56;;;;;;;29.27;18.45;;;;;;;;;;5092815;28;20119;-76
2020/12/03 00:31:22;;;;;;;23.80;16.17;;;;;;;;;;5091488;28;20032;-76
2020/12/03 00:33:49;;;;;;;22.98;15.05;;;;;;;;;;5108338;28;20462;-76
2020/12/03 00:36:15;;;;;;;25.45;16.27;;;;;;;;;;5116253;28;20127;-76
2020/12/03 00:38:40;;;;;;;25.75;17.90;;;;;;;;;;5117198;28;20073;-76
2020/12/03 00:41:06;;;;;;;27.10;18.40;;;;;;;;;;5115487;28;20080;-76
2020/12/03 00:43:31;;;;;;;26.73;17.38;;;;;;;;;;5117030;27;20042;-75
2020/12/03 00:45:56;;;;;;;24.63;16.40;;;;;;;;;;5116496;28;20035;-76
2020/12/03 00:48:22;;;;;;;27.83;18.13;;;;;;;;;;5098552;28;20038;-75
2020/12/03 00:50:48;;;;;;;26.33;17.52;;;;;;;;;;5101554;28;20056;-76
2020/12/03 00:53:15;;;;;;;24.35;17.25;;;;;;;;;;5094968;28;20110;-75
2020/12/03 00:55:41;;;;;;;25.08;16.80;;;;;;;;;;5095045;28;20093;-76
2020/12/03 00:58:10;;;;;;;24.48;16.42;;;;;;;;;;5094226;28;20052;-76
2020/12/03 01:00:36;;;;;;;26.55;17.10;;;;;;;;;;5095845;28;20043;-76
2020/12/03 01:03:01;;;;;;;25.15;17.40;;;;;;;;;;5095786;28;20086;-75
2020/12/03 01:05:27;;;;;;;27.65;17.92;;;;;;;;;;5096018;28;20036;-75
2020/12/03 01:07:52;;;;;;;27.13;17.02;;;;;;;;;;5096292;28;20031;-75
2020/12/03 01:10:23;;;;;;;24.77;17.75;;;;;;;;;;5096136;28;20038;-76
2020/12/03 01:12:48;;;;;;;22.73;15.57;;;;;;;;;;5095773;28;20028;-76
2020/12/03 01:15:14;;;;;;;23.05;16.88;;;;;;;;;;5095830;28;20432;-76
2020/12/03 01:17:41;;;;;;;26.15;16.98;;;;;;;;;;5095583;28;20028;-76
2020/12/03 01:20:16;;;;;;;25.92;16.95;;;;;;;;;;5095888;28;20031;-76
2020/12/03 01:22:41;;;;;;;27.63;17.38;;;;;;;;;;5095673;28;20039;-76
2020/12/03 01:25:08;;;;;;;28.63;18.38;;;;;;;;;;5095379;28;20398;-76
2020/12/03 01:27:34;;;;;;;27.80;16.92;;;;;;;;;;5095652;28;20040;-76
2020/12/03 01:30:00;;;;;;;26.88;17.17;;;;;;;;;;5113244;28;20035;-77
2020/12/03 01:32:25;;;;;;;29.20;18.63;;;;;;;;;;5109403;28;20141;-76
2020/12/03 01:34:51;;;;;;;30.25;18.63;;;;;;;;;;5112371;28;20119;-75
2020/12/03 01:37:17;;;;;;;24.63;16.92;;;;;;;;;;5111633;28;20080;-75
2020/12/03 01:39:43;;;;;;;23.48;16.25;;;;;;;;;;5112300;28;20404;-75
2020/12/03 01:42:09;;;;;;;22.98;16.23;;;;;;;;;;5114521;28;20081;-75
2020/12/03 01:44:47;;;;;;;25.52;16.00;;;;;;;;;;5115668;27;20408;-75
2020/12/03 01:47:31;;;;;;;25.45;16.67;;;;;;;;;;5114851;28;20538;-76
2020/12/03 01:49:57;;;;;;;23.80;16.85;;;;;;;;;;5115021;28;20035;-75
2020/12/03 01:52:24;;;;;;;25.60;17.00;;;;;;;;;;5113829;28;20032;-76
2020/12/03 01:54:50;;;;;;;22.02;15.27;;;;;;;;;;5114981;28;20027;-75
2020/12/03 01:57:36;;;;;;;28.33;15.13;;;;;;;;;;5113964;28;20034;-75
2020/12/03 02:00:12;;;;;;;25.77;16.90;;;;;;;;;;5114534;28;20096;-76
2020/12/03 02:02:46;;;;;;;23.92;16.13;;;;;;;;;;5114297;28;20040;-76
2020/12/03 02:05:32;;;;;;;27.70;16.15;;;;;;;;;;5115298;28;20039;-76
2020/12/03 02:07:57;;;;;;;25.52;16.92;;;;;;;;;;5113747;28;20134;-76
2020/12/03 02:10:24;;;;;;;26.33;16.42;;;;;;;;;;5113039;28;20123;-76
2020/12/03 02:12:50;;;;;;;32.55;16.98;;;;;;;;;;5113844;28;20476;-76
2020/12/03 02:15:17;;;;;;;24.45;15.73;;;;;;;;;;5114788;28;20031;-76
2020/12/03 02:17:43;;;;;;;26.77;16.70;;;;;;;;;;5114867;28;20740;-76
2020/12/03 02:20:26;;;;;;;25.73;16.23;;;;;;;;;;5114822;27;20129;-76
2020/12/03 02:22:51;;;;;;;24.13;16.02;;;;;;;;;;5113915;28;20043;-76
2020/12/03 02:25:17;;;;;;;25.38;17.00;;;;;;;;;;5114933;28;20039;-76
2020/12/03 02:27:43;;;;;;;24.13;16.38;;;;;;;;;;5114626;28;20101;-75
2020/12/03 02:30:11;;;;;;;26.75;16.00;;;;;;;;;;5114628;28;20040;-76
2020/12/03 02:32:37;;;;;;;26.42;16.80;;;;;;;;;;5114681;28;20047;-75
2020/12/03 02:35:10;;;;;;;22.88;15.45;;;;;;;;;;5114701;28;20023;-76
2020/12/03 02:37:35;;;;;;;25.63;17.38;;;;;;;;;;5114716;28;20039;-76
2020/12/03 02:40:05;;;;;;;22.50;15.57;;;;;;;;;;5114368;28;20489;-76
2020/12/03 02:42:31;;;;;;;25.83;16.77;;;;;;;;;;5113062;28;20036;-75
2020/12/03 02:44:57;;;;;;;25.48;16.85;;;;;;;;;;5114344;28;20054;-75
2020/12/03 02:47:23;;;;;;;24.77;16.05;;;;;;;;;;5113235;28;20503;-75
2020/12/03 02:49:49;;;;;;;23.88;16.60;;;;;;;;;;5114192;28;20093;-75
2020/12/03 02:52:19;;;;;;;28.98;18.27;;;;;;;;;;5114042;28;20368;-75
2020/12/03 02:54:45;;;;;;;25.55;17.27;;;;;;;;;;5114263;28;20024;-75
2020/12/03 02:57:11;;;;;;;27.55;17.23;;;;;;;;;;5112460;28;20110;-75
2020/12/03 02:59:36;;;;;;;26.77;17.42;;;;;;;;;;5092613;28;20505;-75
2020/12/03 03:02:03;;;;;;;27.05;17.55;;;;;;;;;;5093635;28;20039;-76
2020/12/03 03:04:29;;;;;;;30.08;18.55;;;;;;;;;;5093861;28;20023;-75
2020/12/03 03:06:54;;;;;;;29.45;18.92;;;;;;;;;;5093483;28;20397;-76
2020/12/03 03:09:21;;;;;;;27.67;18.60;;;;;;;;;;5093460;28;20118;-75
2020/12/03 03:11:46;;;;;;;31.25;18.17;;;;;;;;;;5093615;28;20039;-75
2020/12/03 03:14:12;;;;;;;28.63;18.40;;;;;;;;;;5092432;28;20035;-73
2020/12/03 03:16:38;;;;;;;26.77;18.30;;;;;;;;;;5093473;28;20085;-75
2020/12/03 03:19:03;;;;;;;30.40;19.27;;;;;;;;;;5100859;28;20059;-75
2020/12/03 03:21:30;;;;;;;28.00;18.15;;;;;;;;;;5113858;27;20120;-77
2020/12/03 03:23:56;;;;;;;27.63;16.95;;;;;;;;;;5114064;28;20032;-76
2020/12/03 03:26:21;;;;;;;29.50;20.42;;;;;;;;;;5113870;28;20107;-76
2020/12/03 03:28:47;;;;;;;24.80;17.02;;;;;;;;;;5114038;28;20133;-75
2020/12/03 03:31:12;;;;;;;28.52;16.63;;;;;;;;;;5113823;28;20131;-75
2020/12/03 03:33:38;;;;;;;28.58;18.27;;;;;;;;;;5113698;28;20081;-75
2020/12/03 03:36:03;;;;;;;27.17;19.10;;;;;;;;;;5113908;28;20035;-75
2020/12/03 03:38:29;;;;;;;27.35;18.52;;;;;;;;;;5113709;28;20036;-75
2020/12/03 03:40:55;;;;;;;30.02;20.10;;;;;;;;;;5113815;28;20053;-75
2020/12/03 03:43:21;;;;;;;33.00;21.42;;;;;;;;;;5113660;28;20039;-76
2020/12/03 03:45:46;;;;;;;28.63;18.90;;;;;;;;;;5113695;28;20039;-76
2020/12/03 03:48:11;;;;;;;29.00;18.33;;;;;;;;;;5112811;28;20115;-75
2020/12/03 03:50:37;;;;;;;27.85;18.23;;;;;;;;;;5113794;28;20416;-76
2020/12/03 03:53:03;;;;;;;30.00;18.77;;;;;;;;;;5082263;28;20078;-75
2020/12/03 03:55:28;;;;;;;30.88;19.92;;;;;;;;;;5072981;28;20120;-76
2020/12/03 03:57:54;;;;;;;27.50;18.35;;;;;;;;;;5083206;28;20043;-76
2020/12/03 04:00:20;;;;;;;30.58;20.63;;;;;;;;;;5076119;28;20036;-75
2020/12/03 04:02:46;;;;;;;30.42;18.85;;;;;;;;;;5093328;28;20476;-74
2020/12/03 04:05:14;;;;;;;27.13;18.77;;;;;;;;;;5093132;28;20043;-75
2020/12/03 04:07:39;;;;;;;26.52;17.85;;;;;;;;;;5093153;28;20497;-75
2020/12/03 04:10:05;;;;;;;25.50;17.85;;;;;;;;;;5094075;28;20028;-74
2020/12/03 04:12:31;;;;;;;28.20;17.60;;;;;;;;;;5097100;28;20462;-74
2020/12/03 04:15:00;;;;;;;27.65;17.58;;;;;;;;;;5095725;28;20032;-74
2020/12/03 04:17:27;;;;;;;29.27;18.63;;;;;;;;;;5096885;28;20036;-75
2020/12/03 04:19:54;;;;;;;29.02;19.17;;;;;;;;;;5096433;28;20461;-75
2020/12/03 04:22:19;;;;;;;31.20;20.17;;;;;;;;;;5096560;28;20036;-75
2020/12/03 04:24:45;;;;;;;30.70;19.85;;;;;;;;;;5096497;28;20119;-74
2020/12/03 04:27:10;;;;;;;30.98;21.65;;;;;;;;;;5096773;28;20089;-74
2020/12/03 04:29:35;;;;;;;32.55;21.15;;;;;;;;;;5096866;28;20114;-74
2020/12/03 04:32:02;;;;;;;33.70;22.75;;;;;;;;;;5096408;28;20436;-74
2020/12/03 04:34:28;;;;;;;38.65;23.50;;;;;;;;;;5096504;28;20401;-74
2020/12/03 04:36:53;;;;;;;32.33;21.05;;;;;;;;;;5096480;28;20044;-74
2020/12/03 04:39:19;;;;;;;31.00;20.58;;;;;;;;;;5096452;28;20043;-74
2020/12/03 04:41:44;;;;;;;32.75;21.52;;;;;;;;;;5096081;28;20146;-74
2020/12/03 04:44:21;;;;;;;35.33;22.42;;;;;;;;;;5096361;28;20028;-75
2020/12/03 04:47:00;;;;;;;33.33;20.75;;;;;;;;;;5095682;28;20100;-74
2020/12/03 04:49:25;;;;;;;37.60;21.67;;;;;;;;;;5096596;28;20035;-75
2020/12/03 04:51:57;;;;;;;33.10;22.15;;;;;;;;;;5096459;28;20397;-75
2020/12/03 04:54:31;;;;;;;38.35;23.77;;;;;;;;;;5096351;28;20572;-75
2020/12/03 04:57:04;;;;;;;37.17;23.92;;;;;;;;;;5096009;28;20028;-75
2020/12/03 04:59:43;;;;;;;37.75;22.88;;;;;;;;;;5094954;28;20093;-75
2020/12/03 05:02:23;;;;;;;34.83;22.40;;;;;;;;;;5096097;28;20044;-75
2020/12/03 05:05:00;;;;;;;36.38;22.10;;;;;;;;;;5096026;28;20117;-74
2020/12/03 05:07:27;;;;;;;;;;;;;;;;;;5096442;28;20173;-75
2020/12/03 05:10:16;;;;;;;36.25;22.40;;;;;;;;;;5096147;28;19912;-75
2020/12/03 05:12:43;;;;;;;39.72;25.10;;;;;;;;;;5096092;28;20071;-75
2020/12/03 05:15:20;;;;;;;36.55;22.70;;;;;;;;;;5095893;28;20047;-75
2020/12/03 05:18:07;;;;;;;46.15;26.70;;;;;;;;;;5095418;28;20111;-75
2020/12/03 05:20:32;;;;;;;41.33;25.20;;;;;;;;;;5095496;28;20032;-75
2020/12/03 05:23:07;;;;;;;37.35;23.48;;;;;;;;;;5093891;28;20074;-75
2020/12/03 05:25:32;;;;;;;33.78;22.80;;;;;;;;;;5095785;28;20371;-75
2020/12/03 05:28:16;;;;;;;40.45;24.83;;;;;;;;;;5095588;28;20040;-75
2020/12/03 05:30:42;;;;;;;38.92;24.17;;;;;;;;;;5095380;28;20036;-74
2020/12/03 05:33:07;;;;;;;36.40;23.27;;;;;;;;;;5095672;28;20039;-75
2020/12/03 05:35:37;;;;;;;34.80;21.10;;;;;;;;;;5095462;28;20377;-75
2020/12/03 05:38:03;;;;;;;38.13;22.70;;;;;;;;;;5095452;28;20111;-75
2020/12/03 05:40:29;;;;;;;39.28;24.15;;;;;;;;;;5095526;28;20457;-75
2020/12/03 05:42:55;;;;;;;34.13;21.75;;;;;;;;;;5095304;28;20046;-75
2020/12/03 05:45:28;;;;;;;34.05;21.92;;;;;;;;;;5094229;28;20032;-75
2020/12/03 05:47:57;;;;;;;35.50;21.15;;;;;;;;;;5091197;28;20040;-75
2020/12/03 05:50:37;;;;;;;39.15;24.27;;;;;;;;;;5092783;28;20043;-75
2020/12/03 05:53:22;;;;;;;33.25;22.08;;;;;;;;;;5093550;28;20044;-75
2020/12/03 05:55:49;;;;;;;39.22;24.02;;;;;;;;;;5092661;28;20033;-75
2020/12/03 05:58:17;;;;;;;36.75;23.35;;;;;;;;;;5089956;28;20573;-75
2020/12/03 06:00:43;;;;;;;35.30;23.45;;;;;;;;;;5093519;28;20436;-75
2020/12/03 06:03:22;;;;;;;34.72;22.40;;;;;;;;;;5094785;28;20074;-75
2020/12/03 06:06:25;;;;;;;35.20;22.27;;;;;;;;;;5094003;28;20050;-74
2020/12/03 06:09:05;;;;;;;35.65;23.02;;;;;;;;;;5094808;28;20035;-75
2020/12/03 06:11:54;;;;;;;36.25;23.42;;;;;;;;;;5094718;28;20031;-74
2020/12/03 06:14:41;;;;;;;35.22;23.63;;;;;;;;;;5094757;28;20044;-74
2020/12/03 06:17:31;;;;;;;33.92;22.45;;;;;;;;;;5093435;28;20040;-74
2020/12/03 06:20:03;;;;;;;37.83;24.52;;;;;;;;;;5094323;28;20071;-74
2020/12/03 06:22:55;;;;;;;38.08;22.25;;;;;;;;;;5094175;28;20047;-74
2020/12/03 06:25:29;;;;;;;32.30;20.80;;;;;;;;;;5090735;28;20047;-74
2020/12/03 06:28:20;;;;;;;35.42;22.88;;;;;;;;;;5094486;28;20092;-74
2020/12/03 06:31:13;;;;;;;32.55;21.15;;;;;;;;;;5093913;28;20361;-74
2020/12/03 06:33:48;;;;;;;37.50;21.77;;;;;;;;;;5093115;28;20039;-74
2020/12/03 06:36:14;;;;;;;35.08;21.15;;;;;;;;;;5093985;28;20048;-74
2020/12/03 06:38:50;;;;;;;31.73;21.33;;;;;;;;;;5094036;28;20044;-74
2020/12/03 06:41:33;;;;;;;31.52;20.45;;;;;;;;;;5093773;28;20032;-74
2020/12/03 06:44:20;;;;;;;29.88;20.15;;;;;;;;;;5094086;28;20119;-74
2020/12/03 06:47:03;;;;;;;30.63;19.70;;;;;;;;;;5093879;28;20035;-74
2020/12/03 06:50:06;;;;;;;31.70;20.92;;;;;;;;;;5091819;28;20040;-74
2020/12/03 06:52:54;;;;;;;31.98;21.05;;;;;;;;;;5093904;28;20505;-74
2020/12/03 06:56:05;;;;;;;31.83;21.02;;;;;;;;;;5093753;28;20040;-74
2020/12/03 06:58:50;;;;;;;28.40;18.45;;;;;;;;;;5091707;28;20032;-74
2020/12/03 07:01:34;;;;;;;27.08;18.50;;;;;;;;;;5093537;28;20040;-75
2020/12/03 07:04:53;;;;;;;31.08;19.50;;;;;;;;;;5093715;28;20432;-75
2020/12/03 07:07:22;;;;;;;28.17;18.83;;;;;;;;;;5086888;28;20127;-74
2020/12/03 07:09:54;;;;;;;30.00;20.23;;;;;;;;;;5073607;28;20032;-74
2020/12/03 07:12:22;;;;;;;24.88;16.88;;;;;;;;;;5073176;28;20105;-74
2020/12/03 07:15:06;;;;;;;26.88;18.80;;;;;;;;;;5073318;28;20044;-74
2020/12/03 07:18:02;;;;;;;28.10;17.92;;;;;;;;;;5073472;28;20025;-75
2020/12/03 07:21:02;;;;;;;27.38;16.70;;;;;;;;;;5090058;28;20400;-74
2020/12/03 07:23:50;;;;;;;21.98;15.95;;;;;;;;;;5114030;28;20027;-75
2020/12/03 07:26:30;;;;;;;26.02;17.48;;;;;;;;;;5113498;28;20089;-74
2020/12/03 07:28:59;;;;;;;27.95;19.52;;;;;;;;;;5113998;28;20032;-74
2020/12/03 07:31:34;;;;;;;29.80;19.45;;;;;;;;;;5113717;28;20586;-74
2020/12/03 07:34:27;;;;;;;29.20;18.53;;;;;;;;;;5113579;28;20480;-75
2020/12/03 07:37:04;;;;;;;29.92;19.23;;;;;;;;;;5113859;28;20285;-74
2020/12/03 07:39:34;;;;;;;26.50;17.65;;;;;;;;;;5113643;28;20067;-75
2020/12/03 07:42:12;;;;;;;28.65;18.08;;;;;;;;;;5113653;28;20089;-74
2020/12/03 07:44:43;;;;;;;24.50;16.50;;;;;;;;;;5114309;28;20063;-75
2020/12/03 07:47:23;;;;;;;27.73;18.23;;;;;;;;;;5117941;27;20366;-75
2020/12/03 07:49:54;;;;;;;24.88;16.95;;;;;;;;;;5114802;28;20480;-74
2020/12/03 07:52:35;;;;;;;25.20;16.50;;;;;;;;;;5096720;28;20137;-74
2020/12/03 07:55:19;;;;;;;25.33;17.30;;;;;;;;;;5097237;28;20036;-74
2020/12/03 07:57:44;;;;;;;25.08;17.70;;;;;;;;;;5096330;28;20058;-75
2020/12/03 08:00:49;;;;;;;29.67;19.30;;;;;;;;;;5096761;28;20075;-75
2020/12/03 08:03:36;;;;;;;27.02;18.23;;;;;;;;;;5097110;28;20386;-74
2020/12/03 08:06:18;;;;;;;26.52;17.80;;;;;;;;;;5098611;28;20032;-78
2020/12/03 08:09:09;;;;;;;22.67;15.32;;;;;;;;;;5098737;28;20126;-75
2020/12/03 08:11:42;;;;;;;27.15;17.95;;;;;;;;;;5091849;28;20474;-75
2020/12/03 08:14:37;;;;;;;29.63;19.08;;;;;;;;;;5097877;28;20036;-75
2020/12/03 08:17:06;;;;;;;25.98;16.45;;;;;;;;;;5098025;28;20458;-75
2020/12/03 08:19:37;;;;;;;27.08;17.48;;;;;;;;;;5097003;28;20537;-76
2020/12/03 08:22:22;;;;;;;28.80;17.63;;;;;;;;;;5099197;28;20046;-75
2020/12/03 08:24:48;;;;;;;25.55;17.38;;;;;;;;;;5098141;28;20047;-77
2020/12/03 08:27:19;;;;;;;25.25;16.52;;;;;;;;;;5098498;28;20040;-78
2020/12/03 08:29:44;;;;;;;26.92;17.20;;;;;;;;;;5097527;28;20040;-77
2020/12/03 08:32:09;;;;;;;25.65;16.85;;;;;;;;;;5098898;28;20409;-78
2020/12/03 08:34:36;;;;;;;22.80;15.10;;;;;;;;;;5095675;28;20039;-78
2020/12/03 08:37:03;;;;;;;26.10;16.35;;;;;;;;;;5096301;28;20035;-77
2020/12/03 08:39:30;;;;;;;26.90;16.77;;;;;;;;;;5088942;28;20075;-78
2020/12/03 08:41:56;;;;;;;25.10;17.60;;;;;;;;;;5080944;28;20089;-78
2020/12/03 08:44:23;;;;;;;27.38;18.75;;;;;;;;;;5098786;28;20028;-78
2020/12/03 08:46:52;;;;;;;21.75;15.52;;;;;;;;;;5087072;28;20043;-78
2020/12/03 08:49:23;;;;;;;29.67;17.20;;;;;;;;;;5078786;28;20450;-77
2020/12/03 08:51:49;;;;;;;26.50;17.75;;;;;;;;;;5087061;28;20040;-77
2020/12/03 08:54:15;;;;;;;26.08;16.98;;;;;;;;;;5096503;28;20111;-77
2020/12/03 08:56:43;;;;;;;24.90;15.73;;;;;;;;;;5097631;28;20449;-78
2020/12/03 08:59:22;;;;;;;21.33;15.30;;;;;;;;;;5097320;28;20119;-78
2020/12/03 09:02:06;;;;;;;26.75;15.77;;;;;;;;;;5096669;28;20119;-77
2020/12/03 09:04:34;;;;;;;19.98;14.02;;;;;;;;;;5096267;28;20424;-77
2020/12/03 09:07:03;;;;;;;20.40;13.50;;;;;;;;;;5097000;28;20067;-79
2020/12/03 09:09:30;;;;;;;23.23;15.23;;;;;;;;;;5098277;28;20044;-78
2020/12/03 09:11:55;;;;;;;22.05;14.57;;;;;;;;;;5096025;28;20024;-77
2020/12/03 09:14:21;;;;;;;20.73;14.25;;;;;;;;;;5094631;28;20494;-77
2020/12/03 09:16:57;;;;;;;22.55;15.07;;;;;;;;;;5095767;28;20036;-77
2020/12/03 09:19:23;;;;;;;20.05;14.35;;;;;;;;;;5095492;28;20040;-77
2020/12/03 09:21:50;;;;;;;19.20;13.10;;;;;;;;;;5096159;28;20078;-79
2020/12/03 09:24:21;;;;;;;21.08;13.48;;;;;;;;;;5098029;28;20504;-79
2020/12/03 09:26:47;;;;;;;18.05;12.40;;;;;;;;;;5096287;28;20036;-80
2020/12/03 09:29:13;;;;;;;18.95;13.30;;;;;;;;;;5078634;28;20036;-79
2020/12/03 09:31:38;;;;;;;20.63;13.75;;;;;;;;;;5076533;28;20120;-77
2020/12/03 09:34:06;;;;;;;19.95;13.57;;;;;;;;;;5080442;28;20044;-79
2020/12/03 09:36:32;;;;;;;17.45;12.45;;;;;;;;;;5079206;28;20431;-78
2020/12/03 09:38:59;;;;;;;21.55;14.35;;;;;;;;;;5073955;28;20040;-78
2020/12/03 09:41:26;;;;;;;19.33;13.13;;;;;;;;;;5075055;28;20132;-77
2020/12/03 09:43:54;;;;;;;21.05;14.23;;;;;;;;;;5073601;28;20032;-77
2020/12/03 09:46:25;;;;;;;22.17;13.20;;;;;;;;;;5094473;28;20058;-77
2020/12/03 09:48:54;;;;;;;20.55;13.82;;;;;;;;;;5093979;28;20035;-77
2020/12/03 09:51:21;;;;;;;19.30;12.65;;;;;;;;;;5111649;28;20111;-77
2020/12/03 09:53:48;;;;;;;18.55;13.10;;;;;;;;;;5115314;28;20115;-76
2020/12/03 09:56:13;;;;;;;20.23;13.38;;;;;;;;;;5106937;28;20043;-75
2020/12/03 09:58:39;;;;;;;19.45;13.93;;;;;;;;;;5093880;28;20055;-74
2020/12/03 10:01:07;;;;;;;17.40;11.95;;;;;;;;;;5094312;28;20028;-74
2020/12/03 10:04:11;;;;;;;18.70;12.52;;;;;;;;;;5093015;28;20042;-75
2020/12/03 10:06:52;;;;;;;21.00;13.55;;;;;;;;;;5094791;28;20065;-74
2020/12/03 10:09:51;;;;;;;19.08;12.35;;;;;;;;;;5088473;28;20063;-74
2020/12/03 10:12:29;;;;;;;17.88;12.32;;;;;;;;;;5082245;28;20028;-74
2020/12/03 10:15:15;;;;;;;17.60;11.70;;;;;;;;;;5082286;28;20036;-77
2020/12/03 10:17:50;;;;;;;17.27;11.90;;;;;;;;;;5086139;28;20106;-74
2020/12/03 10:20:15;;;;;;;15.98;11.05;;;;;;;;;;5083948;28;20079;-75
2020/12/03 10:23:11;;;;;;;16.83;11.52;;;;;;;;;;5081485;28;20056;-75
2020/12/03 10:25:40;;;;;;;16.45;10.95;;;;;;;;;;5082237;28;20044;-76
2020/12/03 10:28:24;;;;;;;15.57;10.23;;;;;;;;;;5094685;28;20445;-75
2020/12/03 10:30:53;;;;;;;16.48;11.30;;;;;;;;;;5094646;28;20415;-74
2020/12/03 10:33:20;;;;;;;21.30;12.63;;;;;;;;;;5094722;28;20067;-75
2020/12/03 10:35:47;;;;;;;18.27;11.35;;;;;;;;;;5094551;28;20375;-75
2020/12/03 10:38:19;;;;;;;17.17;10.77;;;;;;;;;;5093134;28;20036;-74
2020/12/03 10:40:45;;;;;;;16.55;10.05;;;;;;;;;;5094078;28;20166;-74
2020/12/03 10:43:18;;;;;;;17.77;10.93;;;;;;;;;;5094278;28;20466;-75
2020/12/03 10:45:47;;;;;;;16.45;11.52;;;;;;;;;;5071966;28;20051;-73
2020/12/03 10:48:25;;;;;;;14.45;9.93;;;;;;;;;;5094116;28;20104;-72
2020/12/03 10:50:57;;;;;;;15.77;9.52;;;;;;;;;;5093501;28;20039;-72
2020/12/03 10:53:27;;;;;;;16.45;10.77;;;;;;;;;;5094301;28;20119;-75
2020/12/03 10:55:58;;;;;;;16.00;10.43;;;;;;;;;;5092021;28;20393;-75
2020/12/03 10:58:36;;;;;;;16.58;10.52;;;;;;;;;;5094418;28;20052;-76
2020/12/03 11:01:07;;;;;;;15.77;10.10;;;;;;;;;;5094239;28;20043;-75
2020/12/03 11:03:36;;;;;;;13.80;9.38;;;;;;;;;;5094511;28;20035;-75
2020/12/03 11:06:01;;;;;;;13.50;9.43;;;;;;;;;;5092333;28;20038;-75
2020/12/03 11:08:35;;;;;;;14.27;9.57;;;;;;;;;;5094323;28;20427;-77
2020/12/03 11:11:01;;;;;;;20.92;12.00;;;;;;;;;;5094400;28;20134;-76
2020/12/03 11:13:26;;;;;;;15.65;11.20;;;;;;;;;;5112646;28;20123;-76
2020/12/03 11:15:56;;;;;;;15.57;10.27;;;;;;;;;;5108413;28;20431;-75
2020/12/03 11:18:23;;;;;;;13.32;9.48;;;;;;;;;;5084360;28;20041;-76
2020/12/03 11:20:58;;;;;;;13.95;9.13;;;;;;;;;;5072460;28;20455;-77
2020/12/03 11:23:30;;;;;;;12.75;8.80;;;;;;;;;;5071965;28;20051;-76
2020/12/03 11:26:05;;;;;;;12.63;8.70;;;;;;;;;;5070425;28;20047;-74
2020/12/03 11:28:35;;;;;;;13.43;9.30;;;;;;;;;;5067314;28;20501;-75
2020/12/03 11:31:08;;;;;;;15.23;9.63;;;;;;;;;;5071275;28;20048;-77
2020/12/03 11:33:39;;;;;;;14.52;9.88;;;;;;;;;;5045484;28;20064;-77
2020/12/03 11:36:07;;;;;;;13.55;9.63;;;;;;;;;;5068241;28;20042;-75
2020/12/03 11:38:33;;;;;;;14.02;9.90;;;;;;;;;;5073218;28;20042;-76
2020/12/03 11:41:03;;;;;;;18.75;11.18;;;;;;;;;;5072517;28;20044;-77
2020/12/03 11:44:02;;;;;;;19.33;11.73;;;;;;;;;;5064901;28;20051;-75
2020/12/03 11:46:53;;;;;;;16.90;10.52;;;;;;;;;;5072941;28;20505;-74
2020/12/03 11:49:26;;;;;;;15.73;10.15;;;;;;;;;;5077186;28;20040;-75
2020/12/03 11:51:51;;;;;;;17.45;11.13;;;;;;;;;;5093446;28;20038;-74
2020/12/03 11:54:17;;;;;;;17.05;11.15;;;;;;;;;;5086269;28;21011;-75
2020/12/03 11:56:42;;;;;;;15.65;10.63;;;;;;;;;;5091181;28;20035;-75
2020/12/03 11:59:20;;;;;;;15.20;9.82;;;;;;;;;;5093050;28;20051;-75
2020/12/03 12:02:05;;;;;;;19.92;10.15;;;;;;;;;;5093273;28;20118;-74
2020/12/03 12:09:35;;;;;;;12.38;8.65;;;;;;;;;;5093250;28;20066;-74
2020/12/03 12:12:01;;;;;;;17.00;10.40;;;;;;;;;;5093297;28;20028;-74
2020/12/03 12:14:26;;;;;;;10.82;8.43;;;;;;;;;;5091335;28;20038;-74
2020/12/03 12:16:53;;;;;;;15.05;9.52;;;;;;;;;;5092981;28;20040;-74
2020/12/03 12:19:19;;;;;;;15.45;10.75;;;;;;;;;;5093040;28;20127;-73
2020/12/03 12:21:44;;;;;;;14.02;9.90;;;;;;;;;;5092640;28;20132;-75
2020/12/03 12:24:10;;;;;;;14.52;9.82;;;;;;;;;;5089248;28;20035;-74
2020/12/03 12:26:35;;;;;;;15.15;10.45;;;;;;;;;;5093050;28;20032;-74
2020/12/03 12:29:01;;;;;;;15.27;11.00;;;;;;;;;;5092926;28;20078;-74
2020/12/03 12:31:26;;;;;;;16.00;10.88;;;;;;;;;;5094671;28;20036;-75
2020/12/03 12:33:52;;;;;;;15.65;10.43;;;;;;;;;;5109409;28;20088;-74
2020/12/03 12:36:17;;;;;;;13.35;9.15;;;;;;;;;;5116963;27;20447;-73
2020/12/03 12:38:42;;;;;;;16.48;10.40;;;;;;;;;;5116931;28;20102;-73
2020/12/03 12:41:08;;;;;;;14.95;9.45;;;;;;;;;;5114508;28;20028;-73
2020/12/03 12:43:34;;;;;;;14.63;10.00;;;;;;;;;;5116798;28;20510;-73
2020/12/03 12:45:59;;;;;;;17.30;11.18;;;;;;;;;;5115542;27;20042;-73
2020/12/03 12:48:24;;;;;;;13.77;9.65;;;;;;;;;;5116618;28;20043;-73
2020/12/03 12:50:50;;;;;;;12.52;8.65;;;;;;;;;;5111897;27;20031;-74
2020/12/03 12:53:15;;;;;;;15.38;9.75;;;;;;;;;;5095922;28;20040;-75
2020/12/03 12:55:40;;;;;;;16.85;10.82;;;;;;;;;;5096210;28;20089;-74
2020/12/03 12:58:06;;;;;;;13.63;9.63;;;;;;;;;;5095945;28;20048;-74
2020/12/03 13:00:31;;;;;;;13.30;9.15;;;;;;;;;;5096052;28;20040;-74
2020/12/03 13:02:56;;;;;;;14.73;9.38;;;;;;;;;;5096085;28;20027;-73
2020/12/03 13:05:22;;;;;;;14.82;10.07;;;;;;;;;;5091612;28;20104;-74
2020/12/03 13:07:47;;;;;;;15.35;10.45;;;;;;;;;;5095727;28;20530;-73
2020/12/03 13:10:13;;;;;;;16.42;10.82;;;;;;;;;;5096041;28;20044;-74
2020/12/03 13:12:39;;;;;;;19.30;11.18;;;;;;;;;;5095928;28;20040;-74
2020/12/03 13:15:04;;;;;;;17.75;11.18;;;;;;;;;;5095689;28;20055;-75
2020/12/03 13:17:30;;;;;;;15.40;10.93;;;;;;;;;;5095758;28;20048;-74
2020/12/03 13:19:55;;;;;;;16.38;10.55;;;;;;;;;;5095808;28;20028;-74
2020/12/03 13:22:20;;;;;;;15.18;10.40;;;;;;;;;;5095598;28;20427;-73
2020/12/03 13:24:46;;;;;;;17.00;10.63;;;;;;;;;;5094895;28;20462;-74
2020/12/03 13:27:11;;;;;;;20.95;13.15;;;;;;;;;;5094901;28;20036;-74
2020/12/03 13:29:37;;;;;;;17.98;11.00;;;;;;;;;;5077248;28;20390;-74
2020/12/03 13:32:02;;;;;;;19.73;12.57;;;;;;;;;;5074524;28;20386;-74
2020/12/03 13:34:27;;;;;;;18.08;12.15;;;;;;;;;;5075012;28;20173;-74
2020/12/03 13:36:53;;;;;;;20.60;11.90;;;;;;;;;;5074103;28;20048;-74
2020/12/03 13:39:18;;;;;;;20.10;12.25;;;;;;;;;;5075200;28;20047;-75
2020/12/03 13:41:44;;;;;;;17.40;11.23;;;;;;;;;;5075070;28;20052;-74
2020/12/03 13:44:09;;;;;;;17.30;12.55;;;;;;;;;;5074331;28;20097;-75
2020/12/03 13:46:38;;;;;;;17.35;12.27;;;;;;;;;;5075311;28;20040;-75
2020/12/03 13:49:04;;;;;;;16.80;12.23;;;;;;;;;;5109708;28;20043;-75
2020/12/03 13:51:30;;;;;;;20.63;12.60;;;;;;;;;;5115672;28;20096;-75
2020/12/03 13:53:55;;;;;;;16.30;11.77;;;;;;;;;;5106442;28;20040;-75
2020/12/03 13:56:21;;;;;;;22.30;14.27;;;;;;;;;;5074957;28;20057;-75
2020/12/03 13:58:46;;;;;;;18.67;12.70;;;;;;;;;;5074672;28;20074;-75
2020/12/03 14:01:11;;;;;;;19.85;13.20;;;;;;;;;;5074709;28;20089;-75
2020/12/03 14:03:37;;;;;;;18.25;12.02;;;;;;;;;;5073655;28;20170;-74
2020/12/03 14:06:03;;;;;;;18.90;12.20;;;;;;;;;;5074696;28;20033;-75
2020/12/03 14:08:28;;;;;;;19.75;13.07;;;;;;;;;;5074649;28;20037;-74
2020/12/03 14:10:53;;;;;;;18.25;12.52;;;;;;;;;;5074614;28;20040;-75
2020/12/03 14:13:19;;;;;;;20.10;13.23;;;;;;;;;;5074478;28;20032;-75
2020/12/03 14:15:44;;;;;;;17.05;11.85;;;;;;;;;;5073268;28;20046;-74
2020/12/03 14:18:10;;;;;;;17.60;11.75;;;;;;;;;;5088535;28;20386;-75
2020/12/03 14:20:37;;;;;;;20.65;11.88;;;;;;;;;;5093820;28;20104;-76
2020/12/03 14:23:02;;;;;;;18.73;12.43;;;;;;;;;;5092873;28;20485;-76
2020/12/03 14:25:28;;;;;;;17.60;12.30;;;;;;;;;;5091213;28;20074;-76
2020/12/03 14:27:53;;;;;;;19.20;12.02;;;;;;;;;;5094278;28;20123;-73
2020/12/03 14:30:19;;;;;;;16.55;11.65;;;;;;;;;;5094329;28;20126;-74
2020/12/03 14:32:46;;;;;;;17.70;11.80;;;;;;;;;;5094371;28;20476;-76
2020/12/03 14:35:12;;;;;;;16.40;11.02;;;;;;;;;;5094239;28;20032;-76
2020/12/03 14:37:38;;;;;;;17.92;11.65;;;;;;;;;;5094266;28;20531;-76
2020/12/03 14:40:13;;;;;;;15.35;10.57;;;;;;;;;;5094194;28;20118;-76
2020/12/03 14:42:40;;;;;;;13.85;10.07;;;;;;;;;;5094027;28;20032;-76
2020/12/03 14:45:13;;;;;;;13.65;9.77;;;;;;;;;;5092741;28;20424;-75